createdAt,value
2022-12-25T00:00:31.493Z,14.25
2022-12-25T00:05:36.042Z,14.25
2022-12-25T00:10:45.206Z,15.25
2022-12-25T00:15:51.287Z,14.50
2022-12-25T00:21:02.744Z,19.25
2022-12-25T00:26:18.002Z,24.25
2022-12-25T00:31:22.880Z,30.25
2022-12-25T00:36:27.453Z,30.00
2022-12-25T00:41:50.151Z,31.75
2022-12-25T00:46:54.185Z,25.50
2022-12-25T00:51:59.261Z,28.75
2022-12-25T00:57:04.087Z,29.50
2022-12-25T01:02:41.071Z,28.25
2022-12-25T01:07:45.216Z,25.50
2022-12-25T01:12:49.278Z,29.50
2022-12-25T01:17:53.384Z,36.00
2022-12-25T01:22:57.424Z,29.00
2022-12-25T01:28:01.477Z,28.00
2022-12-25T01:33:05.532Z,30.00
2022-12-25T01:38:10.022Z,32.00
2022-12-25T01:43:20.372Z,30.50
2022-12-25T01:48:42.897Z,29.75
2022-12-25T01:53:46.857Z,28.00
2022-12-25T01:58:51.467Z,34.00
2022-12-25T02:04:00.598Z,30.00
2022-12-25T02:09:05.104Z,27.25
2022-12-25T02:14:09.782Z,26.50
2022-12-25T02:19:33.779Z,28.75
2022-12-25T02:24:41.604Z,25.50
2022-12-25T02:30:04.666Z,25.00
2022-12-25T02:35:12.295Z,25.25
2022-12-25T02:40:21.078Z,23.00
2022-12-25T02:45:46.378Z,19.25
2022-12-25T02:51:09.665Z,24.25
2022-12-25T02:56:33.526Z,19.00
2022-12-25T03:01:57.134Z,15.75
2022-12-25T03:07:01.589Z,18.75
2022-12-25T03:12:28.485Z,17.50
2022-12-25T03:17:34.203Z,15.50
2022-12-25T03:22:57.592Z,17.50
2022-12-25T03:28:02.332Z,14.50
2022-12-25T03:33:37.162Z,11.50
2022-12-25T03:39:34.259Z,17.50
2022-12-25T03:45:03.564Z,12.75
2022-12-25T03:50:26.522Z,11.75
2022-12-25T03:55:48.837Z,12.75
2022-12-25T04:01:11.397Z,14.50
2022-12-25T04:06:34.360Z,12.75
2022-12-25T04:12:02.170Z,11.25
2022-12-25T04:17:25.535Z,11.50
2022-12-25T04:22:48.212Z,14.50
2022-12-25T04:28:11.756Z,12.50
2022-12-25T04:33:34.478Z,12.75
2022-12-25T04:38:40.443Z,10.75
2022-12-25T04:43:45.298Z,10.75
2022-12-25T04:48:49.526Z,10.00
2022-12-25T04:53:54.690Z,10.00
2022-12-25T04:58:59.289Z,9.50
2022-12-25T05:04:05.356Z,9.25
2022-12-25T05:09:10.139Z,11.25
2022-12-25T05:14:15.043Z,10.75
2022-12-25T05:19:19.867Z,9.00
2022-12-25T05:24:27.359Z,11.00
2022-12-25T05:29:32.250Z,9.25
2022-12-25T05:34:37.027Z,9.00
2022-12-25T05:39:41.886Z,8.50
2022-12-25T05:44:46.723Z,12.75
2022-12-25T05:49:51.181Z,16.50
2022-12-25T05:54:56.033Z,16.25
2022-12-25T06:00:01.035Z,13.25
2022-12-25T06:05:16.344Z,17.00
2022-12-25T06:10:21.183Z,11.75
2022-12-25T06:15:25.563Z,10.25
2022-12-25T06:20:30.453Z,9.50
2022-12-25T06:25:35.352Z,7.50
2022-12-25T06:30:40.127Z,8.75
2022-12-25T06:35:45.188Z,8.25
2022-12-25T06:40:50.137Z,8.25
2022-12-25T06:45:55.122Z,7.00
2022-12-25T06:50:59.527Z,7.00
2022-12-25T06:56:08.799Z,8.75
2022-12-25T07:01:18.111Z,7.00
2022-12-25T07:06:23.213Z,6.25
2022-12-25T07:11:28.347Z,6.50
2022-12-25T07:16:33.297Z,7.50
2022-12-25T07:21:39.272Z,6.50
2022-12-25T07:26:44.366Z,5.00
2022-12-25T07:31:49.497Z,5.50
2022-12-25T07:36:56.027Z,10.00
2022-12-25T07:42:01.112Z,6.75
2022-12-25T07:47:07.197Z,8.25
2022-12-25T07:52:11.543Z,6.25
2022-12-25T07:57:16.211Z,6.75
2022-12-25T08:02:21.957Z,6.00
2022-12-25T08:07:28.660Z,6.75
2022-12-25T08:12:34.959Z,9.50
2022-12-25T08:17:39.825Z,5.00
2022-12-25T08:22:45.097Z,9.75
2022-12-25T08:27:50.239Z,8.25
2022-12-25T08:32:55.124Z,10.50
2022-12-25T08:37:59.713Z,10.50
2022-12-25T08:43:05.955Z,9.50
2022-12-25T08:48:10.850Z,11.25
2022-12-25T08:53:16.282Z,7.50
2022-12-25T08:58:21.279Z,10.00
2022-12-25T09:03:26.507Z,11.50
2022-12-25T09:08:31.729Z,12.75
2022-12-25T09:13:37.899Z,13.50
2022-12-25T09:18:42.752Z,17.50
2022-12-25T09:23:47.575Z,20.50
2022-12-25T09:28:52.804Z,31.00
2022-12-25T09:33:59.444Z,24.75
2022-12-25T09:39:04.563Z,29.25
2022-12-25T09:44:15.444Z,40.50
2022-12-25T09:49:32.433Z,37.75
2022-12-25T09:54:40.070Z,40.50
2022-12-25T09:59:47.156Z,40.50
2022-12-25T10:04:57.873Z,36.50
2022-12-25T10:10:24.184Z,36.25
2022-12-25T10:15:46.664Z,38.25
2022-12-25T10:20:55.793Z,36.25
2022-12-25T10:26:00.171Z,35.00
2022-12-25T10:31:07.989Z,36.25
2022-12-25T10:36:12.422Z,36.00
2022-12-25T10:41:33.053Z,34.75
2022-12-25T10:46:38.169Z,32.75
2022-12-25T10:51:42.531Z,35.00
2022-12-25T10:56:56.033Z,35.00
2022-12-25T11:02:06.834Z,32.75
2022-12-25T11:07:19.988Z,29.25
2022-12-25T11:12:30.647Z,32.50
2022-12-25T11:17:35.101Z,26.00
2022-12-25T11:22:39.560Z,26.50
2022-12-25T11:27:48.960Z,29.00
2022-12-25T11:32:57.594Z,20.75
2022-12-25T11:38:01.991Z,22.00
2022-12-25T11:43:12.422Z,20.50
2022-12-25T11:48:21.493Z,18.25
2022-12-25T11:54:01.238Z,21.50
2022-12-25T11:59:12.460Z,19.00
2022-12-25T12:04:42.389Z,18.50
2022-12-25T12:10:00.724Z,15.25
2022-12-25T12:15:12.864Z,17.25
2022-12-25T12:20:26.585Z,19.00
2022-12-25T12:25:32.425Z,16.50
2022-12-25T12:30:37.244Z,18.25
2022-12-25T12:35:43.307Z,16.75
2022-12-25T12:40:55.912Z,18.50
2022-12-25T12:46:04.755Z,22.25
2022-12-25T12:51:13.634Z,27.25
2022-12-25T12:56:19.906Z,30.25
2022-12-25T13:01:30.293Z,31.25
2022-12-25T13:06:43.704Z,37.75
2022-12-25T13:11:48.247Z,30.00
2022-12-25T22:38:17.772Z,6.50
2022-12-25T22:43:22.559Z,5.75
2022-12-25T22:48:27.241Z,6.50
2022-12-25T22:53:31.909Z,5.00
2022-12-25T22:58:36.975Z,5.00
2022-12-25T23:03:41.800Z,3.50
2022-12-25T23:08:46.681Z,4.25
2022-12-25T23:14:09.697Z,4.75
2022-12-25T23:19:33.406Z,5.25
2022-12-25T23:24:56.098Z,4.25
2022-12-25T23:30:00.620Z,3.75
2022-12-25T23:35:05.527Z,2.75
2022-12-25T23:40:10.531Z,3.00
2022-12-25T23:45:15.429Z,4.00
2022-12-25T23:50:19.940Z,5.25
2022-12-25T23:55:24.718Z,22.00
